Flight Track Log - Related Links

Times and Time Zones

All times are in EDT time to prevent confusion due to time zone crossing. See the N3920C flight status page for this flight to view local times or setup timezone preferences in your user account.

Time Position Orientation Groundspeed Altitude Reporting Facility
EDT Latitude Longitude Course Direction KTS MPH feet Rate Location/Type
Thu 09:53:17 PM 37.4808 -94.9750 273° West 130 150 7,300  Level Kansas City Center
Thu 09:54:19 PM 37.4814 -95.0186 271° West 130 150 8,400 1,065 Climbing Kansas City Center
Thu 09:55:21 PM 37.4808 -95.0625 269° West 129 148 9,500 1,024 Climbing Kansas City Center
Thu 09:56:00 PM 37.4667 -94.9906 270° West  Level FlightAware Approximate
Thu 09:56:22 PM 37.4794 -95.1072 268° West 129 148 10,500  Level Kansas City Center
Thu 09:57:00 PM 37.4667 -95.0463 270° West  Level FlightAware Approximate
Thu 09:57:24 PM 37.4814 -95.1556 273° West 129 148 11,500  Level Kansas City Center
Thu 09:58:25 PM 37.4872 -95.2117 277° West 130 150 12,700 1,073 Climbing Kansas City Center
Thu 09:59:27 PM 37.4928 -95.2561 279° West 131 151 13,700 634 Climbing Kansas City Center
Thu 10:00:28 PM 37.4936 -95.3083 271° West 143 165 14,000 195 Climbing Kansas City Center
Thu 10:01:30 PM 37.4967 -95.3706 274° West 172 198 14,100 49 Climbing Kansas City Center
Thu 10:02:31 PM 37.5017 -95.4331 276° West 179 206 14,100 -49 Level Kansas City Center
Thu 10:03:33 PM 37.5092 -95.4964 279° West 180 207 14,000 -49 Descending Kansas City Center
Thu 10:04:34 PM 37.5156 -95.5594 277° West 181 208 14,000  Level Kansas City Center
Thu 10:05:36 PM 37.5214 -95.6236 277° West 181 208 14,000  Level Kansas City Center
Thu 10:06:38 PM 37.5264 -95.6994 275° West 184 212 14,000  Level Kansas City Center
Thu 10:07:39 PM 37.5319 -95.7642 276° West 183 211 14,000  Level Kansas City Center
Thu 10:08:41 PM 37.5367 -95.8281 275° West 183 211 14,000  Level Kansas City Center
Thu 10:09:42 PM 37.5408 -95.8919 275° West 183 211 14,000  Level Kansas City Center
Thu 10:10:44 PM 37.5431 -95.9556 273° West 183 211 14,000  Level Kansas City Center
Thu 10:11:45 PM 37.5483 -96.0194 276° West 183 211 14,000  Level Kansas City Center
Thu 10:12:47 PM 37.5514 -96.0828 274° West 183 211 14,000  Level Kansas City Center
Thu 10:13:48 PM 37.5561 -96.1469 275° West 183 211 14,000  Level Kansas City Center
Thu 10:14:50 PM 37.5603 -96.2106 275° West 183 211 14,000  Level Kansas City Center
Thu 10:15:51 PM 37.5664 -96.2875 276° West 183 211 14,000  Level Kansas City Center
Thu 10:16:53 PM 37.5717 -96.3517 276° West 183 211 14,000  Level Kansas City Center
Thu 10:17:54 PM 37.5758 -96.4156 275° West 183 211 14,000  Level Kansas City Center
Thu 10:18:56 PM 37.5803 -96.4747 275° West 184 212 14,000  Level Kansas City Center
Thu 10:19:18 PM 37.5828 -96.5092 275° West 184 212 14,000  Level Kansas City Center
Thu 10:19:42 PM 37.5853 -96.5328 278° West 184 212 14,000  Level Kansas City Center
Thu 10:19:57 PM 37.5850 -96.5386 267° West 184 212 14,000  Level Kansas City Center
Thu 10:20:43 PM 37.5881 -96.5983 274° West 183 211 14,000  Level Kansas City Center
Thu 10:20:58 PM 37.5903 -96.6025 304° West 184 212 14,000  Level Kansas City Center
Thu 10:21:44 PM 37.5925 -96.6611 273° West 184 212 14,000  Level Kansas City Center
Thu 10:22:00 PM 37.5933 -96.6792 273° West 184 212 14,000  Level Kansas City Center
Thu 10:23:01 PM 37.5964 -96.7439 273° West 184 212 14,000  Level Kansas City Center
Thu 10:23:45 PM 37.5994 -96.7894 275° West 183 211 14,000  Level Kansas City Center
Thu 10:24:03 PM 37.5989 -96.8081 268° West 184 212 14,000  Level Kansas City Center
Thu 10:24:46 PM 37.6022 -96.8578 275° West 182 209 14,000  Level Kansas City Center
Thu 10:25:04 PM 37.6031 -96.8717 274° West 184 212 14,000  Level Kansas City Center
Thu 10:26:06 PM 37.6069 -96.9364 274° West 184 212 14,000  Level Kansas City Center
Thu 10:26:59 PM 37.6125 -96.9989 276° West 184 212 14,000  Level Kansas City Center
Thu 10:28:00 PM 37.6169 -97.0642 275° West 182 209 14,000  Level Kansas City Center
Thu 10:29:00 PM 37.6192 -97.1272 273° West 181 208 14,000  Level Kansas City Center
Thu 10:29:10 PM 37.6194 -97.1269 38° Northeast 183 211 14,000  Level Kansas City Center
Thu 10:30:01 PM 37.6233 -97.1900 274° West 181 208 14,000  Level Kansas City Center
Thu 10:30:11 PM 37.6233 -97.1897 90° East 183 211 14,000  Level Kansas City Center
Thu 10:30:55 PM 37.6272 -97.2503 275° West 183 211 14,000  Level Kansas City Center
Thu 10:31:13 PM 37.6278 -97.2678 272° West 183 211 14,000  Level Kansas City Center
Thu 10:31:56 PM 37.6314 -97.3131 276° West 183 211 14,000  Level Kansas City Center
Thu 10:32:14 PM 37.6317 -97.3303 271° West 183 211 14,000  Level Kansas City Center
Thu 10:32:57 PM 37.6353 -97.3758 276° West 183 211 14,000  Level Kansas City Center
Thu 10:33:16 PM 37.6344 -97.3947 267° West 183 211 14,000  Level Kansas City Center
Thu 10:33:51 PM 37.6369 -97.4336 275° West 186 214 14,000  Level Kansas City Center
Thu 10:34:17 PM 37.6381 -97.4606 273° West 184 212 14,000  Level Kansas City Center
Thu 10:34:58 PM 37.6400 -97.5097 273° West 190 219 14,000  Level Kansas City Center
Thu 10:35:18 PM 37.6431 -97.5228 286° West 183 211 14,000  Level Kansas City Center
Thu 10:35:53 PM 37.6439 -97.5700 271° West 185 213 14,000  Level Kansas City Center
Thu 10:36:20 PM 37.6461 -97.5886 279° West 183 211 14,000  Level Kansas City Center
Thu 10:36:53 PM 37.6481 -97.6353 273° West 185 213 14,000  Level Kansas City Center
Thu 10:37:21 PM 37.6503 -97.6542 278° West 184 212 14,000  Level Kansas City Center
Thu 10:37:54 PM 37.6519 -97.6983 273° West 186 214 14,000  Level Kansas City Center
Thu 10:38:22 PM 37.6539 -97.7197 277° West 184 212 14,000  Level Kansas City Center
Thu 10:39:24 PM 37.6350 -97.7806 249° West 189 217 14,000  Level Kansas City Center
Thu 10:40:25 PM 37.6119 -97.8414 244° Southwest 189 217 14,000  Level Kansas City Center
Thu 10:41:26 PM 37.5836 -97.9139 244° Southwest 190 219 14,000 -293 Level Kansas City Center
Thu 10:42:28 PM 37.5603 -97.9753 244° Southwest 190 219 13,400 -1,512 Descending Kansas City Center
Thu 10:43:29 PM 37.5436 -98.0531 255° West 222 255 10,900 -1,820 Descending Kansas City Center
Thu 10:44:30 PM 37.5553 -98.1325 281° West 229 264 9,700 -1,122 Descending Kansas City Center
Thu 10:45:32 PM 37.5706 -98.2011 286° West 209 241 8,600 -878 Descending Kansas City Center
Thu 10:46:33 PM 37.5856 -98.2675 286° West 203 234 7,900 -738 Descending Kansas City Center
Thu 10:47:34 PM 37.6039 -98.3303 290° West 195 224 7,100 -787 Descending Kansas City Center

Login

Don't have an account? Register now (free) for customized features, flight alerts, and more!